createdAt,value
2018-11-29T00:00:36.616Z,-4.19
2018-11-29T00:03:06.829Z,-4.18
2018-11-29T00:05:36.021Z,-4.19
2018-11-29T00:08:05.405Z,-4.19
2018-11-29T00:10:34.764Z,-4.12
2018-11-29T00:13:04.043Z,-4.10
2018-11-29T00:15:33.192Z,-4.09
2018-11-29T00:18:02.400Z,-4.01
2018-11-29T00:20:31.633Z,-4.12
2018-11-29T00:23:00.822Z,-4.08
2018-11-29T00:25:30.284Z,-4.09
2018-11-29T00:27:59.503Z,-4.11
2018-11-29T00:30:28.733Z,-4.14
2018-11-29T00:32:57.760Z,-4.13
2018-11-29T00:35:26.892Z,-4.10
2018-11-29T00:37:56.117Z,-4.13
2018-11-29T00:40:25.848Z,-4.03
2018-11-29T00:42:55.162Z,-4.16
2018-11-29T00:45:24.936Z,-4.15
2018-11-29T00:47:54.452Z,-4.09
2018-11-29T00:50:23.886Z,-4.15
2018-11-29T00:52:53.136Z,-4.13
2018-11-29T00:55:24.153Z,-4.12
2018-11-29T00:57:53.728Z,-4.14
2018-11-29T01:00:24.741Z,-4.17
2018-11-29T01:02:54.342Z,-4.28
2018-11-29T01:05:23.536Z,-4.23
2018-11-29T01:07:52.735Z,-4.24
2018-11-29T01:10:22.228Z,-4.11
2018-11-29T01:12:51.422Z,-4.06
2018-11-29T01:15:21.436Z,-4.14
2018-11-29T01:17:51.423Z,-4.11
2018-11-29T01:20:21.517Z,-4.11
2018-11-29T01:22:50.732Z,-4.05
2018-11-29T01:25:20.349Z,-4.06
2018-11-29T01:27:50.864Z,-4.02
2018-11-29T01:30:21.540Z,-4.01
2018-11-29T01:32:50.712Z,-3.98
2018-11-29T01:35:20.696Z,-4.01
2018-11-29T01:37:50.234Z,-4.03
2018-11-29T01:40:21.923Z,-4.06
2018-11-29T01:42:55.596Z,-4.01
2018-11-29T01:45:24.924Z,-4.03
2018-11-29T01:47:54.088Z,-4.00
2018-11-29T01:50:23.552Z,-4.07
2018-11-29T01:52:52.814Z,-4.16
2018-11-29T01:55:22.061Z,-4.17
2018-11-29T01:57:51.545Z,-4.19
2018-11-29T02:00:20.741Z,-4.25
2018-11-29T02:02:52.869Z,-4.25
2018-11-29T02:05:21.804Z,-4.17
2018-11-29T02:07:51.202Z,-4.12
2018-11-29T02:10:26.953Z,-4.19
2018-11-29T02:12:56.552Z,-4.11
2018-11-29T02:15:25.829Z,-4.16
2018-11-29T02:17:55.020Z,-4.13
2018-11-29T02:20:24.089Z,-4.06
2018-11-29T02:22:53.188Z,-4.06
2018-11-29T02:25:22.571Z,-4.05
2018-11-29T02:27:51.740Z,-4.04
2018-11-29T02:30:22.957Z,-4.07
2018-11-29T02:32:53.034Z,-4.06
2018-11-29T02:35:22.160Z,-4.02
2018-11-29T02:37:51.600Z,-4.08
2018-11-29T02:40:20.957Z,-4.03
2018-11-29T02:42:50.713Z,-3.97
2018-11-29T02:45:21.801Z,-3.95
2018-11-29T02:47:51.178Z,-3.97
2018-11-29T02:50:20.028Z,-3.99
2018-11-29T02:52:49.173Z,-4.01
2018-11-29T02:55:18.552Z,-3.89
2018-11-29T02:57:47.811Z,-3.92
2018-11-29T03:00:17.824Z,-4.02
2018-11-29T03:02:46.961Z,-3.88
2018-11-29T03:05:16.550Z,-3.90
2018-11-29T03:07:46.137Z,-3.97
2018-11-29T03:10:15.818Z,-3.83
2018-11-29T03:12:45.201Z,-3.88
2018-11-29T03:15:15.298Z,-3.83
2018-11-29T03:17:44.886Z,-3.84
2018-11-29T03:20:14.977Z,-3.81
2018-11-29T03:22:44.268Z,-3.75
2018-11-29T03:25:16.434Z,-3.81
2018-11-29T03:27:46.097Z,-3.89
2018-11-29T03:30:16.422Z,-3.92
2018-11-29T03:32:45.744Z,-3.97
2018-11-29T03:35:15.733Z,-3.91
2018-11-29T03:37:44.925Z,-3.89
2018-11-29T03:40:15.715Z,-3.88
2018-11-29T03:42:45.845Z,-3.78
2018-11-29T03:45:15.934Z,-3.78
2018-11-29T03:47:45.469Z,-3.71
2018-11-29T03:50:17.172Z,-3.74
2018-11-29T03:52:46.716Z,-3.70
2018-11-29T03:55:15.924Z,-3.74
2018-11-29T03:57:45.265Z,-3.74
2018-11-29T04:00:15.370Z,-3.79
2018-11-29T04:02:45.876Z,-3.79
2018-11-29T04:05:15.377Z,-3.78
2018-11-29T04:07:44.668Z,-3.87
2018-11-29T04:10:15.662Z,-3.77
2018-11-29T04:12:44.788Z,-3.78
2018-11-29T04:15:14.858Z,-3.84
2018-11-29T04:17:44.519Z,-3.91
2018-11-29T04:20:16.641Z,-3.90
2018-11-29T04:22:46.272Z,-3.96
2018-11-29T04:25:16.037Z,-4.03
2018-11-29T04:27:45.336Z,-4.04
2018-11-29T04:30:15.680Z,-4.12
2018-11-29T04:32:45.053Z,-4.15
2018-11-29T04:35:14.689Z,-4.10
2018-11-29T04:37:44.128Z,-4.14
2018-11-29T04:40:17.086Z,-4.10
2018-11-29T04:42:46.772Z,-4.13
2018-11-29T04:45:16.797Z,-4.15
2018-11-29T04:47:46.212Z,-4.15
2018-11-29T04:50:16.519Z,-4.20
2018-11-29T04:52:45.713Z,-4.19
2018-11-29T04:55:15.024Z,-4.19
2018-11-29T04:57:44.136Z,-4.15
2018-11-29T05:00:16.202Z,-4.16
2018-11-29T05:02:45.960Z,-4.10
2018-11-29T05:05:15.233Z,-4.17
2018-11-29T05:07:44.089Z,-4.13
2018-11-29T05:10:17.044Z,-4.08
2018-11-29T05:12:47.088Z,-4.04
2018-11-29T05:15:16.364Z,-3.98
2018-11-29T05:17:46.058Z,-4.09
2018-11-29T05:20:15.216Z,-3.99
2018-11-29T05:22:44.856Z,-4.04
2018-11-29T05:25:14.113Z,-3.92
2018-11-29T05:27:43.239Z,-3.92
2018-11-29T05:30:13.540Z,-3.94
2018-11-29T05:32:42.951Z,-3.91
2018-11-29T05:35:13.049Z,-4.07
2018-11-29T05:37:42.598Z,-4.16
2018-11-29T05:40:14.180Z,-4.07
2018-11-29T05:42:43.532Z,-4.06
2018-11-29T05:45:12.920Z,-4.09
2018-11-29T05:47:42.472Z,-4.07
2018-11-29T05:50:12.396Z,-4.12
2018-11-29T05:52:42.096Z,-4.18
2018-11-29T05:55:12.883Z,-4.19
2018-11-29T05:57:42.297Z,-4.27
2018-11-29T06:00:14.000Z,-4.25
2018-11-29T06:02:43.706Z,-4.26
2018-11-29T06:05:14.304Z,-4.21
2018-11-29T06:07:43.481Z,-4.22
2018-11-29T06:10:12.968Z,-4.22
2018-11-29T06:12:42.265Z,-4.22
2018-11-29T06:15:12.465Z,-4.25
2018-11-29T06:17:42.150Z,-4.27
2018-11-29T06:20:13.819Z,-4.24
2018-11-29T06:22:43.103Z,-4.41
2018-11-29T06:25:12.362Z,-4.24
2018-11-29T06:27:41.991Z,-4.36
2018-11-29T06:30:21.004Z,-4.40
2018-11-29T06:32:52.366Z,-4.47
2018-11-29T06:35:20.638Z,-4.52
2018-11-29T06:37:49.928Z,-4.48
2018-11-29T06:40:19.612Z,-4.39
2018-11-29T06:42:49.064Z,-4.50
2018-11-29T06:45:21.994Z,-4.37
2018-11-29T06:47:52.225Z,-4.27
2018-11-29T06:50:21.579Z,-4.14
2018-11-29T06:52:51.687Z,-4.11
2018-11-29T06:55:21.885Z,-4.04
2018-11-29T06:57:51.317Z,-3.91
2018-11-29T07:00:31.787Z,-3.82
2018-11-29T07:03:00.933Z,-3.77
2018-11-29T07:05:30.041Z,-3.83
2018-11-29T07:07:59.168Z,-3.71
2018-11-29T07:10:32.392Z,-3.59
2018-11-29T07:13:02.140Z,-3.60
2018-11-29T07:15:31.473Z,-3.60
2018-11-29T07:18:00.689Z,-3.73
2018-11-29T07:20:30.283Z,-3.75
2018-11-29T07:22:59.602Z,-3.64
2018-11-29T07:25:28.865Z,-3.64
2018-11-29T07:27:58.094Z,-3.63
2018-11-29T07:30:27.416Z,-3.82
2018-11-29T07:32:56.665Z,-3.72
2018-11-29T07:35:25.927Z,-3.69
2018-11-29T07:37:55.192Z,-3.58
2018-11-29T07:40:24.513Z,-3.42
2018-11-29T07:42:55.621Z,-3.55
2018-11-29T07:45:25.058Z,-3.60
2018-11-29T07:47:54.220Z,-3.58
2018-11-29T07:50:24.283Z,-3.37
2018-11-29T07:52:53.466Z,-3.31
2018-11-29T07:55:23.173Z,-3.32
2018-11-29T07:57:54.336Z,-3.13
2018-11-29T08:00:23.595Z,-3.14
2018-11-29T08:02:52.681Z,-3.06
2018-11-29T08:05:22.067Z,-3.03
2018-11-29T08:07:51.509Z,-3.09
2018-11-29T08:10:21.219Z,-3.00
2018-11-29T08:12:50.958Z,-3.01
2018-11-29T08:15:21.480Z,-2.90
2018-11-29T08:17:50.849Z,-2.82
2018-11-29T08:20:21.069Z,-3.00
2018-11-29T08:22:50.297Z,-2.91
2018-11-29T08:25:19.629Z,-2.88
2018-11-29T08:27:49.036Z,-2.88
2018-11-29T08:30:18.449Z,-2.82
2018-11-29T08:32:47.632Z,-2.69
2018-11-29T08:35:17.256Z,-2.77
2018-11-29T08:37:47.218Z,-2.69
2018-11-29T08:40:18.741Z,-2.52
2018-11-29T08:42:47.990Z,-2.48
2018-11-29T08:45:17.382Z,-2.14
2018-11-29T08:47:47.233Z,-2.35
2018-11-29T08:50:16.736Z,-2.18
2018-11-29T08:52:46.637Z,-2.12
2018-11-29T08:55:16.909Z,-2.28
2018-11-29T08:57:46.432Z,-2.16
2018-11-29T09:00:16.417Z,-2.11
2018-11-29T09:02:45.689Z,-2.03
2018-11-29T09:05:15.009Z,-2.12
2018-11-29T09:07:44.999Z,-2.23
2018-11-29T09:10:17.219Z,-2.34
2018-11-29T09:12:46.669Z,-2.31
2018-11-29T09:15:16.576Z,-2.18
2018-11-29T09:17:45.971Z,-2.13
2018-11-29T09:20:19.300Z,-2.27
2018-11-29T09:22:48.936Z,-2.31
2018-11-29T09:25:19.105Z,-2.33
2018-11-29T09:27:48.487Z,-2.11
2018-11-29T09:30:18.593Z,-2.09
2018-11-29T09:32:48.613Z,-2.12
2018-11-29T09:35:17.966Z,-2.05
2018-11-29T09:37:47.470Z,-1.99
2018-11-29T09:40:17.368Z,-1.86
2018-11-29T09:42:46.917Z,-1.84
2018-11-29T09:45:23.310Z,-1.86
2018-11-29T09:47:53.629Z,-1.85
2018-11-29T09:50:23.060Z,-1.90
2018-11-29T09:52:52.555Z,-1.70
2018-11-29T09:55:21.912Z,-1.69
2018-11-29T09:57:51.459Z,-1.65
2018-11-29T10:00:27.892Z,-1.89
2018-11-29T10:03:00.643Z,-1.87
2018-11-29T10:05:30.756Z,-2.14
2018-11-29T10:08:00.084Z,-2.17
2018-11-29T10:10:29.264Z,-2.23
2018-11-29T10:12:58.769Z,-1.88
2018-11-29T10:15:27.864Z,-1.91
2018-11-29T10:17:57.057Z,-1.97
2018-11-29T10:20:26.998Z,-2.10
2018-11-29T10:22:56.315Z,-2.17
2018-11-29T10:25:25.720Z,-1.93
2018-11-29T10:27:59.928Z,-1.86
2018-11-29T10:30:31.665Z,-1.68
2018-11-29T10:33:01.045Z,-1.71
2018-11-29T10:35:30.202Z,-1.66
2018-11-29T10:37:59.463Z,-1.36
2018-11-29T10:40:28.959Z,-1.12
2018-11-29T10:42:58.171Z,-1.19
2018-11-29T10:45:27.357Z,-1.21
2018-11-29T10:47:57.090Z,-1.56
2018-11-29T10:50:26.427Z,-1.70
2018-11-29T10:52:55.745Z,-1.66
2018-11-29T10:55:25.048Z,-1.85
2018-11-29T10:57:54.306Z,-1.84
2018-11-29T11:00:29.839Z,-2.05
2018-11-29T11:03:07.732Z,-2.40
2018-11-29T11:05:37.627Z,-2.71
2018-11-29T11:08:08.966Z,-2.82
2018-11-29T11:10:38.779Z,-2.89
2018-11-29T11:13:08.159Z,-3.14
2018-11-29T11:15:37.587Z,-2.91
2018-11-29T11:18:08.152Z,-2.83
2018-11-29T11:20:37.486Z,-2.96
2018-11-29T11:23:06.680Z,-2.98
2018-11-29T11:25:36.124Z,-3.30
2018-11-29T11:28:06.208Z,-3.28
2018-11-29T11:30:35.820Z,-3.37
2018-11-29T11:33:05.160Z,-3.37
2018-11-29T11:35:34.733Z,-3.57
2018-11-29T11:38:04.031Z,-3.71
2018-11-29T11:40:33.265Z,-3.76
2018-11-29T11:43:05.219Z,-4.00
2018-11-29T11:45:31.636Z,-4.08
2018-11-29T11:48:03.423Z,-4.10
2018-11-29T11:50:30.387Z,-4.09
2018-11-29T11:52:59.736Z,-3.97
2018-11-29T11:55:30.240Z,-3.82
2018-11-29T11:57:58.541Z,-3.61
2018-11-29T12:00:29.782Z,-3.37
2018-11-29T12:03:02.197Z,-3.27
2018-11-29T12:05:31.354Z,-3.15
2018-11-29T12:08:00.339Z,-3.10
2018-11-29T12:10:29.518Z,-3.22
2018-11-29T12:12:58.842Z,-3.22
2018-11-29T12:15:28.233Z,-3.23
2018-11-29T12:17:57.721Z,-3.24
2018-11-29T12:20:26.957Z,-3.18
2018-11-29T12:22:56.014Z,-3.25
2018-11-29T12:25:25.229Z,-3.20
2018-11-29T12:27:54.466Z,-3.13
2018-11-29T12:30:25.813Z,-3.11
2018-11-29T12:32:57.485Z,-3.30
2018-11-29T12:35:26.794Z,-3.41
2018-11-29T12:37:56.048Z,-3.80
2018-11-29T12:40:25.240Z,-3.84
2018-11-29T12:42:54.404Z,-3.89
2018-11-29T12:45:23.678Z,-3.88
2018-11-29T12:47:52.980Z,-3.92
2018-11-29T12:50:24.643Z,-3.80
2018-11-29T12:52:53.843Z,-3.81
2018-11-29T12:55:24.378Z,-3.70
2018-11-29T12:58:05.409Z,-3.62
2018-11-29T13:00:24.660Z,-3.54
2018-11-29T13:02:58.813Z,-3.40
2018-11-29T13:05:28.772Z,-3.36
2018-11-29T13:07:58.038Z,-3.43
2018-11-29T13:10:28.858Z,-3.33
2018-11-29T13:12:58.001Z,-3.26
2018-11-29T13:15:31.512Z,-3.24
2018-11-29T13:18:01.730Z,-3.17
2018-11-29T13:20:32.615Z,-3.08
2018-11-29T13:23:00.350Z,-3.09
2018-11-29T13:25:29.879Z,-3.19
2018-11-29T13:27:59.126Z,-3.05
2018-11-29T13:30:28.309Z,-2.98
2018-11-29T13:32:57.991Z,-3.13
2018-11-29T13:35:33.520Z,-3.25
2018-11-29T13:38:05.523Z,-3.19
2018-11-29T13:40:35.002Z,-3.35
2018-11-29T13:43:04.140Z,-3.43
2018-11-29T13:45:33.449Z,-3.44
2018-11-29T13:48:02.824Z,-3.48
2018-11-29T13:50:32.049Z,-3.75
2018-11-29T13:53:01.202Z,-3.72
2018-11-29T13:55:30.453Z,-3.59
2018-11-29T13:57:59.745Z,-3.74
2018-11-29T14:00:29.009Z,-3.80
2018-11-29T14:03:02.968Z,-3.79
2018-11-29T14:05:32.140Z,-3.85
2018-11-29T14:08:01.267Z,-3.98
2018-11-29T14:10:30.518Z,-4.01
2018-11-29T14:12:59.719Z,-4.11
2018-11-29T14:15:29.796Z,-4.04
2018-11-29T14:17:58.961Z,-4.14
2018-11-29T14:20:28.368Z,-4.13
2018-11-29T14:22:58.030Z,-4.13
2018-11-29T14:25:27.077Z,-4.18
2018-11-29T14:27:57.356Z,-4.12
2018-11-29T14:30:28.826Z,-4.26
2018-11-29T14:32:59.820Z,-4.50
2018-11-29T14:35:29.091Z,-4.41
2018-11-29T14:37:58.720Z,-4.41
2018-11-29T14:40:28.972Z,-4.40
2018-11-29T14:42:58.229Z,-4.55
2018-11-29T14:45:27.984Z,-4.62
2018-11-29T14:47:57.316Z,-4.53
2018-11-29T14:50:44.563Z,-4.57
2018-11-29T14:53:13.859Z,-4.61
2018-11-29T14:55:43.133Z,-4.55
2018-11-29T14:58:19.497Z,-4.47
2018-11-29T15:00:43.741Z,-4.46
2018-11-29T15:03:17.439Z,-4.39
2018-11-29T15:05:46.911Z,-4.31
2018-11-29T15:08:16.211Z,-4.21
2018-11-29T15:10:45.356Z,-4.27
2018-11-29T15:13:14.851Z,-4.25
2018-11-29T15:15:44.420Z,-4.18
2018-11-29T15:18:13.906Z,-4.17
2018-11-29T15:20:44.341Z,-4.10
2018-11-29T15:23:14.940Z,-4.13
2018-11-29T15:25:44.117Z,-4.14
2018-11-29T15:28:13.517Z,-4.22
2018-11-29T15:30:43.176Z,-4.19
2018-11-29T15:33:12.392Z,-4.17
2018-11-29T15:35:41.695Z,-4.13
2018-11-29T15:38:11.150Z,-4.14
2018-11-29T15:40:40.388Z,-4.21
2018-11-29T15:43:09.644Z,-4.12
2018-11-29T15:45:39.236Z,-4.02
2018-11-29T15:48:08.426Z,-4.09
2018-11-29T15:50:37.793Z,-4.12
2018-11-29T15:53:07.958Z,-4.13
2018-11-29T15:55:37.202Z,-4.27
2018-11-29T15:58:06.688Z,-4.30
2018-11-29T16:00:36.067Z,-4.32
2018-11-29T16:03:10.032Z,-4.33
2018-11-29T16:05:41.256Z,-4.31
2018-11-29T16:08:08.747Z,-4.30
2018-11-29T16:10:37.676Z,-4.23
2018-11-29T16:13:17.389Z,-4.23
2018-11-29T16:15:47.064Z,-4.19
2018-11-29T16:18:16.716Z,-4.27
2018-11-29T16:20:46.010Z,-4.20
2018-11-29T16:23:15.414Z,-4.13
2018-11-29T16:25:44.836Z,-4.19
2018-11-29T16:28:14.118Z,-4.07
2018-11-29T16:30:46.994Z,-4.06
2018-11-29T16:33:21.729Z,-4.06
2018-11-29T16:35:51.282Z,-3.97
2018-11-29T16:38:20.524Z,-3.91
2018-11-29T16:40:49.728Z,-4.00
2018-11-29T16:43:19.080Z,-4.17
2018-11-29T16:45:48.228Z,-4.03
2018-11-29T16:48:17.663Z,-4.04
2018-11-29T16:50:47.357Z,-4.02
2018-11-29T16:53:16.721Z,-4.05
2018-11-29T16:55:46.144Z,-4.00
2018-11-29T16:58:17.320Z,-3.95
2018-11-29T17:00:46.905Z,-3.98
2018-11-29T17:03:16.172Z,-4.04
2018-11-29T17:05:45.372Z,-4.02
2018-11-29T17:08:14.725Z,-4.02
2018-11-29T17:10:43.876Z,-4.00
2018-11-29T17:13:16.094Z,-4.08
2018-11-29T17:15:45.242Z,-4.09
2018-11-29T17:18:14.441Z,-4.12
2018-11-29T17:20:43.914Z,-4.09
2018-11-29T17:23:13.533Z,-4.05
2018-11-29T17:25:42.683Z,-4.08
2018-11-29T17:28:12.104Z,-4.05
2018-11-29T17:30:41.422Z,-4.13
2018-11-29T17:33:10.904Z,-4.09
2018-11-29T17:35:40.453Z,-4.04
2018-11-29T17:38:10.402Z,-4.08
2018-11-29T17:40:40.210Z,-4.09
2018-11-29T17:43:09.960Z,-4.07
2018-11-29T17:45:39.257Z,-4.05
2018-11-29T17:48:09.977Z,-4.08
2018-11-29T17:50:40.410Z,-4.11
2018-11-29T17:53:09.851Z,-4.05
2018-11-29T17:55:38.784Z,-4.05
2018-11-29T17:58:09.553Z,-4.06
2018-11-29T18:00:38.866Z,-4.11
2018-11-29T18:03:08.617Z,-4.32
2018-11-29T18:05:38.216Z,-4.71
2018-11-29T18:08:07.464Z,-4.81
2018-11-29T18:10:38.461Z,-4.74
2018-11-29T18:13:15.976Z,-4.83
2018-11-29T18:15:45.343Z,-4.82
2018-11-29T18:18:14.753Z,-4.91
2018-11-29T18:20:44.003Z,-4.87
2018-11-29T18:23:13.233Z,-4.96
2018-11-29T18:25:42.396Z,-5.03
2018-11-29T18:28:12.232Z,-5.05
2018-11-29T18:30:41.576Z,-5.05
2018-11-29T18:33:10.777Z,-4.99
2018-11-29T18:35:40.012Z,-5.06
2018-11-29T18:38:09.280Z,-5.04
2018-11-29T18:40:38.439Z,-5.06
2018-11-29T18:43:09.327Z,-4.98
2018-11-29T18:45:38.614Z,-4.98
2018-11-29T18:48:08.196Z,-4.92
2018-11-29T18:50:37.676Z,-4.92
2018-11-29T18:53:07.347Z,-4.91
2018-11-29T18:55:36.653Z,-4.90
2018-11-29T18:58:06.418Z,-4.91
2018-11-29T19:00:36.671Z,-4.87
2018-11-29T19:03:06.289Z,-4.87
2018-11-29T19:05:35.589Z,-4.91
2018-11-29T19:08:04.752Z,-4.85
2018-11-29T19:10:34.068Z,-4.93
2018-11-29T19:13:05.685Z,-4.94
2018-11-29T19:15:34.746Z,-5.00
2018-11-29T19:18:03.952Z,-5.00
2018-11-29T19:20:33.469Z,-5.01
2018-11-29T19:23:02.745Z,-4.98
2018-11-29T19:25:32.108Z,-5.00
2018-11-29T19:28:01.424Z,-5.00
2018-11-29T19:30:31.393Z,-4.99
2018-11-29T19:33:09.193Z,-5.07
2018-11-29T19:35:38.332Z,-5.19
2018-11-29T19:38:07.626Z,-5.28
2018-11-29T19:40:37.011Z,-5.38
2018-11-29T19:43:06.899Z,-5.47
2018-11-29T19:45:36.197Z,-5.48
2018-11-29T19:48:06.137Z,-5.56
2018-11-29T19:50:35.412Z,-5.50
2018-11-29T19:53:05.825Z,-5.49
2018-11-29T19:55:35.733Z,-5.59
2018-11-29T19:58:05.069Z,-5.61
2018-11-29T20:00:34.229Z,-5.70
2018-11-29T20:03:03.657Z,-5.69
2018-11-29T20:05:32.876Z,-5.79
2018-11-29T20:08:02.157Z,-5.77
2018-11-29T20:10:31.413Z,-5.89
2018-11-29T20:13:06.953Z,-5.85
2018-11-29T20:15:38.084Z,-5.98
2018-11-29T20:18:07.917Z,-5.95
2018-11-29T20:20:37.165Z,-6.06
2018-11-29T20:23:06.758Z,-6.07
2018-11-29T20:25:35.761Z,-6.10
2018-11-29T20:28:04.948Z,-6.07
2018-11-29T20:30:34.341Z,-6.08
2018-11-29T20:33:03.525Z,-6.06
2018-11-29T20:35:32.636Z,-6.10
2018-11-29T20:38:01.905Z,-6.10
2018-11-29T20:40:33.049Z,-6.05
2018-11-29T20:43:02.648Z,-6.02
2018-11-29T20:45:50.560Z,-5.92
2018-11-29T20:48:22.348Z,-5.94
2018-11-29T20:50:52.266Z,-5.95
2018-11-29T20:53:25.080Z,-6.01
2018-11-29T20:55:54.430Z,-5.93
2018-11-29T20:58:23.618Z,-5.98
2018-11-29T21:00:53.149Z,-6.07
2018-11-29T21:03:22.353Z,-6.06
2018-11-29T21:05:51.501Z,-6.16
2018-11-29T21:08:21.065Z,-6.17
2018-11-29T21:10:50.227Z,-6.18
2018-11-29T21:13:19.328Z,-6.13
2018-11-29T21:15:48.813Z,-6.13
2018-11-29T21:18:18.141Z,-6.21
2018-11-29T21:20:47.317Z,-6.30
2018-11-29T21:23:17.777Z,-6.25
2018-11-29T21:25:47.458Z,-6.42
2018-11-29T21:28:16.489Z,-6.33
2018-11-29T21:30:45.868Z,-6.42
2018-11-29T21:33:15.067Z,-6.48
2018-11-29T21:35:44.365Z,-6.56
2018-11-29T21:38:16.711Z,-6.58
2018-11-29T21:40:50.117Z,-6.70
2018-11-29T21:43:19.523Z,-6.66
2018-11-29T21:45:48.619Z,-6.67
2018-11-29T21:48:17.833Z,-6.69
2018-11-29T21:50:47.017Z,-6.66
2018-11-29T21:53:16.345Z,-6.74
2018-11-29T21:55:45.557Z,-6.73
2018-11-29T21:58:14.909Z,-6.70
2018-11-29T22:00:44.133Z,-6.72
2018-11-29T22:03:13.365Z,-6.70
2018-11-29T22:05:42.749Z,-6.66
2018-11-29T22:08:12.149Z,-6.68
2018-11-29T22:10:41.125Z,-6.68
2018-11-29T22:13:10.236Z,-6.71
2018-11-29T22:15:39.549Z,-6.78
2018-11-29T22:18:16.549Z,-6.81
2018-11-29T22:20:45.728Z,-6.94
2018-11-29T22:23:14.912Z,-6.98
2018-11-29T22:25:44.525Z,-6.99
2018-11-29T22:28:13.561Z,-7.04
2018-11-29T22:30:42.732Z,-7.08
2018-11-29T22:33:12.093Z,-7.05
2018-11-29T22:35:41.257Z,-7.01
2018-11-29T22:38:10.418Z,-7.08
2018-11-29T22:40:39.546Z,-7.04
2018-11-29T22:43:08.767Z,-7.01
2018-11-29T22:45:38.041Z,-7.02
2018-11-29T22:48:07.753Z,-7.09
2018-11-29T22:50:36.908Z,-7.15
2018-11-29T22:53:06.257Z,-7.14
2018-11-29T22:55:36.046Z,-7.12
2018-11-29T22:58:05.250Z,-7.09
2018-11-29T23:00:40.611Z,-7.10
2018-11-29T23:03:09.909Z,-7.14
2018-11-29T23:05:39.172Z,-7.18
2018-11-29T23:08:08.665Z,-7.20
2018-11-29T23:10:37.917Z,-7.23
2018-11-29T23:13:07.341Z,-7.27
2018-11-29T23:15:37.037Z,-7.22
2018-11-29T23:18:06.702Z,-7.23
2018-11-29T23:20:35.917Z,-7.26
2018-11-29T23:23:05.439Z,-7.27
2018-11-29T23:25:34.953Z,-7.19
2018-11-29T23:28:04.529Z,-7.29
2018-11-29T23:30:33.869Z,-7.30
2018-11-29T23:33:03.150Z,-7.27
2018-11-29T23:35:32.564Z,-7.27
2018-11-29T23:38:02.006Z,-7.30
2018-11-29T23:40:31.285Z,-7.33
2018-11-29T23:43:00.497Z,-7.33
2018-11-29T23:45:29.802Z,-7.39
2018-11-29T23:47:59.076Z,-7.37
2018-11-29T23:50:28.165Z,-7.41
2018-11-29T23:52:57.666Z,-7.42
2018-11-29T23:55:26.882Z,-7.48
2018-11-29T23:57:56.048Z,-7.41
